Ridgecrest, CA

9:36 AM PST on January 27, 2015 (GMT -0800)
China Lake NAWS | Change Station
CLOSE
Current Station
Airport
Location: China Lake,
Elevation: 2283 ft
Nearby Weather Stations

Elev 2283 ft 35.69 °N, 117.69 °W | Updated 31 minutes ago

Overcast
Overcast
50 °F
Feels Like 50 °F
N
0
Wind Variable Wind from North

Today
High -- | Low -- °F
--% Chance of Precip.
Yesterday
High -- | Low -- °F
Precip. -- in
6:54 AM 5:13 PM
First Quarter, 56% visible
Pressure 30.24 in
Visibility 7.0 miles
Clouds Few 200 ft
Mostly Cloudy 4900 ft
Overcast 6500 ft
Dew Point 48 °F
Humidity 93%
Rainfall 0.02 in
Snow Depth Not available.
UV 1 out of 12
Pollen 2.60 out of 12
Air Quality Not available.
Flu Activity Not available.
SPECI KNID 271705Z 00000KT 7SM FEW002 BKN049 OVC065 10/09 A3024 RMK AO2 T01000089 $

More Conditions Fewer Conditions

Pressure 30.24 in
Visibility 7.0 miles
Clouds Few 200 ft
Mostly Cloudy 4900 ft
Overcast 6500 ft
Dew Point 48 °F
Humidity 93%
Rainfall 0.02 in
Snow Depth Not available.
UV 1 out of 12
Pollen 2.60 out of 12
Air Quality Not available.
Flu Activity Not available.
SPECI KNID 271705Z 00000KT 7SM FEW002 BKN049 OVC065 10/09 A3024 RMK AO2 T01000089 $

More Conditions Fewer Conditions

10-Day Weather Forecast

Almanac

Astronomy

Jan. 27, 2015 Rise Set
Actual Time
Civil Twilight
Nautical Twilight
Astronomical Twilight
Moon
Length of Visible Light
Length of Day
Tomorrow will be .
, % of the Moon is Illuminated

Today's Extremes

State Highs State Lows

Community

WunderPhotos

Upload Photos

1,790,732 photos uploaded!

WunderBlogs® & News

Nearby

Air Quality

  Air Quality AQ Index Pollutant
Not available.

Snow Depth

Station Depth Elevation

Earthquake Activity

City Distance Mag. Time & Date
Minimum magnitude displayed is 2.5.

Coastal Water Temperatures

Place Temperature

Nearby Weather Stations